KRDM/RDM METAR and TAF weather

Enter ICAO airport designator
Station Type Date Time Source
KRDM METAR 2022/12/05 13:56 UTC NOAA

KRDM 051356Z 09005KT 10SM CLR M12/M14 A2993 RMK AO2 SLP178 T11171139


Station Type Date Time Source
KRDM Decoded METAR 2022/12/05 13:56 UTC NOAA

REDMOND ROBERTS FIELD, OR, United States (KRDM) 44-15N 121-08W
Dec 05, 2022 - 08:56 AM EST / 2022.12.05 1356 UTC
Wind: from the E (090 degrees) at 6 MPH (5 KT):0
Visibility: 10 mile(s):0
Sky conditions: clear
Temperature: 10.9 F (-11.7 C)
Windchill: 1 F (-17 C):1
Dew Point: 7.0 F (-13.9 C)
Relative Humidity: 83%
Pressure (altimeter): 29.93 in. Hg (1013 hPa)
ob: KRDM 051356Z 09005KT 10SM CLR M12/M14 A2993 RMK AO2 SLP178 T11171139
cycle: 14

Station Type Date Time Source
KRDM TAF 2022/12/05 12:24 UTC NOAA

TAF KRDM 051120Z 0512/0612 VRB04KT P6SM BKN050
FM060300 VRB03KT P6SM BKN035
FM060900 17003KT P6SM OVC015

Example: see airport list